sensor_id;sensor_type;location;lat;lon;timestamp;P1;durP1;ratioP1;P2;durP2;ratioP2
39848;SDS011;25518;47.878;15.914;2022-12-18T00:01:50;8.13;;;3.88;;
39848;SDS011;25518;47.878;15.914;2022-12-18T00:04:23;8.85;;;4.38;;
39848;SDS011;25518;47.878;15.914;2022-12-18T00:06:55;7.60;;;3.85;;
39848;SDS011;25518;47.878;15.914;2022-12-18T00:09:26;8.25;;;4.03;;
39848;SDS011;25518;47.878;15.914;2022-12-18T00:11:57;6.78;;;3.53;;
39848;SDS011;25518;47.878;15.914;2022-12-18T00:14:28;7.20;;;3.47;;
39848;SDS011;25518;47.878;15.914;2022-12-18T00:16:59;8.30;;;3.85;;
39848;SDS011;25518;47.878;15.914;2022-12-18T00:19:30;7.60;;;3.88;;
39848;SDS011;25518;47.878;15.914;2022-12-18T00:22:01;8.52;;;3.95;;
39848;SDS011;25518;47.878;15.914;2022-12-18T00:24:32;6.88;;;3.70;;
39848;SDS011;25518;47.878;15.914;2022-12-18T00:27:03;7.57;;;3.97;;
39848;SDS011;25518;47.878;15.914;2022-12-18T00:29:34;7.37;;;3.60;;
39848;SDS011;25518;47.878;15.914;2022-12-18T00:32:05;9.98;;;5.13;;
39848;SDS011;25518;47.878;15.914;2022-12-18T00:34:36;7.32;;;3.80;;
39848;SDS011;25518;47.878;15.914;2022-12-18T00:37:07;8.32;;;4.10;;
39848;SDS011;25518;47.878;15.914;2022-12-18T00:39:38;7.50;;;4.10;;
39848;SDS011;25518;47.878;15.914;2022-12-18T00:42:10;7.20;;;3.40;;
39848;SDS011;25518;47.878;15.914;2022-12-18T00:45:01;9.23;;;4.05;;
39848;SDS011;25518;47.878;15.914;2022-12-18T00:47:32;7.68;;;3.47;;
39848;SDS011;25518;47.878;15.914;2022-12-18T00:50:03;7.17;;;3.90;;
39848;SDS011;25518;47.878;15.914;2022-12-18T00:52:34;8.38;;;3.38;;
39848;SDS011;25518;47.878;15.914;2022-12-18T00:55:05;9.17;;;3.90;;
39848;SDS011;25518;47.878;15.914;2022-12-18T00:57:36;9.13;;;4.53;;
39848;SDS011;25518;47.878;15.914;2022-12-18T01:00:08;7.68;;;3.67;;
39848;SDS011;25518;47.878;15.914;2022-12-18T01:02:42;7.20;;;3.60;;
39848;SDS011;25518;47.878;15.914;2022-12-18T01:05:13;9.13;;;3.80;;
39848;SDS011;25518;47.878;15.914;2022-12-18T01:07:44;7.82;;;3.50;;
39848;SDS011;25518;47.878;15.914;2022-12-18T01:10:15;7.25;;;3.80;;
39848;SDS011;25518;47.878;15.914;2022-12-18T01:12:46;7.22;;;3.70;;
39848;SDS011;25518;47.878;15.914;2022-12-18T01:15:17;6.70;;;3.77;;
39848;SDS011;25518;47.878;15.914;2022-12-18T01:17:51;9.13;;;3.77;;
39848;SDS011;25518;47.878;15.914;2022-12-18T01:20:23;6.90;;;3.60;;
39848;SDS011;25518;47.878;15.914;2022-12-18T01:22:54;7.32;;;3.75;;
39848;SDS011;25518;47.878;15.914;2022-12-18T01:25:25;7.00;;;3.08;;
39848;SDS011;25518;47.878;15.914;2022-12-18T01:27:56;8.43;;;3.72;;
39848;SDS011;25518;47.878;15.914;2022-12-18T01:30:27;11.47;;;4.10;;
39848;SDS011;25518;47.878;15.914;2022-12-18T01:32:58;7.90;;;3.90;;
39848;SDS011;25518;47.878;15.914;2022-12-18T01:35:29;7.82;;;3.70;;
39848;SDS011;25518;47.878;15.914;2022-12-18T01:38:00;8.90;;;3.73;;
39848;SDS011;25518;47.878;15.914;2022-12-18T01:40:31;7.40;;;3.53;;
39848;SDS011;25518;47.878;15.914;2022-12-18T01:43:02;7.70;;;3.35;;
39848;SDS011;25518;47.878;15.914;2022-12-18T01:45:33;6.25;;;3.05;;
39848;SDS011;25518;47.878;15.914;2022-12-18T01:48:06;6.97;;;3.25;;
39848;SDS011;25518;47.878;15.914;2022-12-18T01:50:39;7.60;;;3.55;;
39848;SDS011;25518;47.878;15.914;2022-12-18T01:53:14;6.78;;;3.47;;
39848;SDS011;25518;47.878;15.914;2022-12-18T01:55:49;6.55;;;3.28;;
39848;SDS011;25518;47.878;15.914;2022-12-18T01:58:46;7.15;;;3.60;;
39848;SDS011;25518;47.878;15.914;2022-12-18T02:01:32;6.10;;;3.22;;
39848;SDS011;25518;47.878;15.914;2022-12-18T02:04:20;6.68;;;3.10;;
39848;SDS011;25518;47.878;15.914;2022-12-18T02:06:55;6.07;;;3.17;;
39848;SDS011;25518;47.878;15.914;2022-12-18T02:09:47;6.88;;;3.38;;
39848;SDS011;25518;47.878;15.914;2022-12-18T02:12:25;7.68;;;3.67;;
39848;SDS011;25518;47.878;15.914;2022-12-18T02:15:12;6.30;;;3.30;;
39848;SDS011;25518;47.878;15.914;2022-12-18T02:17:51;6.57;;;3.15;;
39848;SDS011;25518;47.878;15.914;2022-12-18T02:20:40;6.38;;;3.60;;
39848;SDS011;25518;47.878;15.914;2022-12-18T02:26:27;7.57;;;4.10;;
39848;SDS011;25518;47.878;15.914;2022-12-18T02:29:01;8.35;;;3.97;;
39848;SDS011;25518;47.878;15.914;2022-12-18T02:31:47;10.20;;;3.85;;
39848;SDS011;25518;47.878;15.914;2022-12-18T02:34:26;7.28;;;3.38;;
39848;SDS011;25518;47.878;15.914;2022-12-18T02:37:04;6.63;;;3.40;;
39848;SDS011;25518;47.878;15.914;2022-12-18T02:39:38;7.28;;;3.35;;
39848;SDS011;25518;47.878;15.914;2022-12-18T02:42:12;7.70;;;3.75;;
39848;SDS011;25518;47.878;15.914;2022-12-18T02:44:44;6.78;;;3.55;;
39848;SDS011;25518;47.878;15.914;2022-12-18T02:47:19;7.60;;;4.07;;
39848;SDS011;25518;47.878;15.914;2022-12-18T02:50:26;6.90;;;3.30;;
39848;SDS011;25518;47.878;15.914;2022-12-18T02:53:08;8.10;;;3.10;;
39848;SDS011;25518;47.878;15.914;2022-12-18T02:56:03;8.53;;;3.70;;
39848;SDS011;25518;47.878;15.914;2022-12-18T03:17:59;8.20;;;3.93;;
39848;SDS011;25518;47.878;15.914;2022-12-18T03:20:35;6.97;;;3.67;;
39848;SDS011;25518;47.878;15.914;2022-12-18T03:23:11;8.95;;;3.72;;
39848;SDS011;25518;47.878;15.914;2022-12-18T03:25:47;7.63;;;3.85;;
39848;SDS011;25518;47.878;15.914;2022-12-18T03:28:22;8.50;;;3.50;;
39848;SDS011;25518;47.878;15.914;2022-12-18T03:30:55;7.57;;;3.22;;
39848;SDS011;25518;47.878;15.914;2022-12-18T03:33:31;7.20;;;3.65;;
39848;SDS011;25518;47.878;15.914;2022-12-18T03:36:10;8.88;;;3.85;;
39848;SDS011;25518;47.878;15.914;2022-12-18T03:38:41;9.73;;;4.37;;
39848;SDS011;25518;47.878;15.914;2022-12-18T03:43:54;5.47;;;3.20;;
39848;SDS011;25518;47.878;15.914;2022-12-18T03:49:55;9.50;;;4.00;;
39848;SDS011;25518;47.878;15.914;2022-12-18T03:52:35;7.13;;;3.08;;
39848;SDS011;25518;47.878;15.914;2022-12-18T03:55:10;8.95;;;3.83;;
39848;SDS011;25518;47.878;15.914;2022-12-18T03:57:42;7.78;;;4.43;;
39848;SDS011;25518;47.878;15.914;2022-12-18T04:00:15;8.27;;;4.30;;
39848;SDS011;25518;47.878;15.914;2022-12-18T04:02:51;9.30;;;3.88;;
39848;SDS011;25518;47.878;15.914;2022-12-18T04:05:24;8.77;;;3.58;;
39848;SDS011;25518;47.878;15.914;2022-12-18T04:07:57;7.30;;;3.50;;
39848;SDS011;25518;47.878;15.914;2022-12-18T04:10:28;7.28;;;3.63;;
39848;SDS011;25518;47.878;15.914;2022-12-18T04:13:00;8.60;;;3.42;;
39848;SDS011;25518;47.878;15.914;2022-12-18T04:15:32;6.55;;;3.35;;
39848;SDS011;25518;47.878;15.914;2022-12-18T04:18:06;7.82;;;3.50;;
39848;SDS011;25518;47.878;15.914;2022-12-18T04:20:38;9.35;;;3.70;;
39848;SDS011;25518;47.878;15.914;2022-12-18T04:23:09;7.30;;;3.53;;
39848;SDS011;25518;47.878;15.914;2022-12-18T04:25:39;8.73;;;3.30;;
39848;SDS011;25518;47.878;15.914;2022-12-18T04:28:10;8.38;;;3.75;;
39848;SDS011;25518;47.878;15.914;2022-12-18T04:30:41;8.55;;;4.10;;
39848;SDS011;25518;47.878;15.914;2022-12-18T04:33:13;8.25;;;4.07;;
39848;SDS011;25518;47.878;15.914;2022-12-18T04:35:47;9.05;;;4.20;;
39848;SDS011;25518;47.878;15.914;2022-12-18T04:38:18;7.30;;;3.70;;
39848;SDS011;25518;47.878;15.914;2022-12-18T04:40:49;6.82;;;3.55;;
39848;SDS011;25518;47.878;15.914;2022-12-18T04:43:20;6.20;;;3.33;;
39848;SDS011;25518;47.878;15.914;2022-12-18T04:45:51;7.60;;;3.90;;
39848;SDS011;25518;47.878;15.914;2022-12-18T04:48:22;7.07;;;3.57;;
39848;SDS011;25518;47.878;15.914;2022-12-18T04:50:52;7.68;;;3.70;;
39848;SDS011;25518;47.878;15.914;2022-12-18T04:53:23;7.85;;;3.42;;
39848;SDS011;25518;47.878;15.914;2022-12-18T04:56:10;9.50;;;4.32;;
39848;SDS011;25518;47.878;15.914;2022-12-18T04:58:44;8.32;;;3.80;;
39848;SDS011;25518;47.878;15.914;2022-12-18T05:01:16;9.07;;;4.10;;
39848;SDS011;25518;47.878;15.914;2022-12-18T05:03:50;8.57;;;4.25;;
39848;SDS011;25518;47.878;15.914;2022-12-18T05:06:22;8.05;;;4.55;;
39848;SDS011;25518;47.878;15.914;2022-12-18T05:08:53;7.00;;;4.25;;
39848;SDS011;25518;47.878;15.914;2022-12-18T05:11:27;7.72;;;3.47;;
39848;SDS011;25518;47.878;15.914;2022-12-18T05:13:57;7.78;;;4.05;;
39848;SDS011;25518;47.878;15.914;2022-12-18T05:16:28;6.95;;;3.72;;
39848;SDS011;25518;47.878;15.914;2022-12-18T05:18:59;8.85;;;4.50;;
39848;SDS011;25518;47.878;15.914;2022-12-18T05:21:30;7.93;;;3.70;;
39848;SDS011;25518;47.878;15.914;2022-12-18T05:24:01;7.30;;;3.73;;
39848;SDS011;25518;47.878;15.914;2022-12-18T05:26:32;8.30;;;3.60;;
39848;SDS011;25518;47.878;15.914;2022-12-18T05:29:03;6.95;;;3.45;;
39848;SDS011;25518;47.878;15.914;2022-12-18T05:31:34;7.20;;;3.55;;
39848;SDS011;25518;47.878;15.914;2022-12-18T05:34:05;7.43;;;3.70;;
39848;SDS011;25518;47.878;15.914;2022-12-18T05:36:36;7.07;;;3.35;;
39848;SDS011;25518;47.878;15.914;2022-12-18T05:39:07;8.50;;;3.88;;
39848;SDS011;25518;47.878;15.914;2022-12-18T05:41:38;8.23;;;3.47;;
39848;SDS011;25518;47.878;15.914;2022-12-18T05:44:09;8.15;;;3.85;;
39848;SDS011;25518;47.878;15.914;2022-12-18T05:46:40;8.67;;;3.87;;
39848;SDS011;25518;47.878;15.914;2022-12-18T05:49:10;7.37;;;3.33;;
39848;SDS011;25518;47.878;15.914;2022-12-18T05:51:41;7.65;;;3.45;;
39848;SDS011;25518;47.878;15.914;2022-12-18T05:54:12;6.85;;;3.50;;
39848;SDS011;25518;47.878;15.914;2022-12-18T05:56:43;6.75;;;3.45;;
39848;SDS011;25518;47.878;15.914;2022-12-18T05:59:14;6.28;;;3.03;;
39848;SDS011;25518;47.878;15.914;2022-12-18T06:01:45;6.45;;;3.17;;
39848;SDS011;25518;47.878;15.914;2022-12-18T06:04:17;7.13;;;3.53;;
39848;SDS011;25518;47.878;15.914;2022-12-18T06:06:47;6.80;;;3.75;;
39848;SDS011;25518;47.878;15.914;2022-12-18T06:09:18;7.18;;;3.25;;
39848;SDS011;25518;47.878;15.914;2022-12-18T06:11:51;8.07;;;3.85;;
39848;SDS011;25518;47.878;15.914;2022-12-18T06:14:22;10.95;;;5.07;;
39848;SDS011;25518;47.878;15.914;2022-12-18T06:16:53;8.95;;;3.78;;
39848;SDS011;25518;47.878;15.914;2022-12-18T06:19:24;10.30;;;4.50;;
39848;SDS011;25518;47.878;15.914;2022-12-18T06:21:55;12.00;;;4.77;;
39848;SDS011;25518;47.878;15.914;2022-12-18T06:24:29;10.60;;;5.28;;
39848;SDS011;25518;47.878;15.914;2022-12-18T06:27:00;11.38;;;5.43;;
39848;SDS011;25518;47.878;15.914;2022-12-18T06:29:31;8.70;;;4.37;;
39848;SDS011;25518;47.878;15.914;2022-12-18T06:32:02;10.80;;;4.93;;
39848;SDS011;25518;47.878;15.914;2022-12-18T06:34:33;11.00;;;4.97;;
39848;SDS011;25518;47.878;15.914;2022-12-18T06:37:07;11.02;;;4.40;;
39848;SDS011;25518;47.878;15.914;2022-12-18T06:39:38;8.23;;;4.53;;
39848;SDS011;25518;47.878;15.914;2022-12-18T06:42:08;8.07;;;3.80;;
39848;SDS011;25518;47.878;15.914;2022-12-18T06:44:42;9.88;;;4.15;;
39848;SDS011;25518;47.878;15.914;2022-12-18T06:47:13;9.98;;;4.65;;
39848;SDS011;25518;47.878;15.914;2022-12-18T06:49:44;9.85;;;4.68;;
39848;SDS011;25518;47.878;15.914;2022-12-18T06:52:15;8.43;;;3.83;;
39848;SDS011;25518;47.878;15.914;2022-12-18T06:54:46;8.13;;;4.20;;
39848;SDS011;25518;47.878;15.914;2022-12-18T06:57:17;8.98;;;4.00;;
39848;SDS011;25518;47.878;15.914;2022-12-18T06:59:48;9.18;;;3.75;;
39848;SDS011;25518;47.878;15.914;2022-12-18T07:02:21;11.65;;;5.07;;
39848;SDS011;25518;47.878;15.914;2022-12-18T07:04:52;10.47;;;4.83;;
39848;SDS011;25518;47.878;15.914;2022-12-18T07:07:23;9.90;;;4.90;;
39848;SDS011;25518;47.878;15.914;2022-12-18T07:09:54;9.70;;;4.55;;
39848;SDS011;25518;47.878;15.914;2022-12-18T07:12:26;8.55;;;4.15;;
39848;SDS011;25518;47.878;15.914;2022-12-18T07:14:58;12.10;;;5.45;;
39848;SDS011;25518;47.878;15.914;2022-12-18T07:17:29;9.18;;;4.43;;
39848;SDS011;25518;47.878;15.914;2022-12-18T07:20:00;8.20;;;4.40;;
39848;SDS011;25518;47.878;15.914;2022-12-18T07:22:31;9.48;;;4.13;;
39848;SDS011;25518;47.878;15.914;2022-12-18T07:25:02;8.43;;;3.92;;
39848;SDS011;25518;47.878;15.914;2022-12-18T07:27:33;9.93;;;4.32;;
39848;SDS011;25518;47.878;15.914;2022-12-18T07:30:04;7.20;;;3.78;;
39848;SDS011;25518;47.878;15.914;2022-12-18T07:32:36;7.53;;;3.20;;
39848;SDS011;25518;47.878;15.914;2022-12-18T07:35:07;8.45;;;3.67;;
39848;SDS011;25518;47.878;15.914;2022-12-18T07:37:38;10.15;;;4.93;;
39848;SDS011;25518;47.878;15.914;2022-12-18T07:40:09;8.98;;;4.50;;
39848;SDS011;25518;47.878;15.914;2022-12-18T07:42:41;9.33;;;4.50;;
39848;SDS011;25518;47.878;15.914;2022-12-18T07:45:11;7.72;;;3.70;;
39848;SDS011;25518;47.878;15.914;2022-12-18T07:47:42;10.07;;;5.38;;
39848;SDS011;25518;47.878;15.914;2022-12-18T07:50:13;10.90;;;5.10;;
39848;SDS011;25518;47.878;15.914;2022-12-18T07:52:44;10.25;;;5.07;;
39848;SDS011;25518;47.878;15.914;2022-12-18T07:55:15;10.65;;;5.28;;
39848;SDS011;25518;47.878;15.914;2022-12-18T07:57:46;13.57;;;6.80;;
39848;SDS011;25518;47.878;15.914;2022-12-18T08:00:17;10.57;;;5.45;;
39848;SDS011;25518;47.878;15.914;2022-12-18T08:02:48;8.38;;;4.18;;
39848;SDS011;25518;47.878;15.914;2022-12-18T08:05:19;13.73;;;6.67;;
39848;SDS011;25518;47.878;15.914;2022-12-18T08:07:51;8.88;;;4.47;;
39848;SDS011;25518;47.878;15.914;2022-12-18T08:10:22;12.15;;;6.43;;
39848;SDS011;25518;47.878;15.914;2022-12-18T08:12:53;15.90;;;5.85;;
39848;SDS011;25518;47.878;15.914;2022-12-18T08:15:24;10.10;;;4.72;;
39848;SDS011;25518;47.878;15.914;2022-12-18T08:17:56;10.52;;;4.65;;
39848;SDS011;25518;47.878;15.914;2022-12-18T08:20:27;9.48;;;4.80;;
39848;SDS011;25518;47.878;15.914;2022-12-18T08:22:58;7.57;;;3.63;;
39848;SDS011;25518;47.878;15.914;2022-12-18T08:25:29;8.55;;;3.97;;
39848;SDS011;25518;47.878;15.914;2022-12-18T08:28:00;8.82;;;4.40;;
39848;SDS011;25518;47.878;15.914;2022-12-18T08:30:31;12.50;;;5.20;;
39848;SDS011;25518;47.878;15.914;2022-12-18T08:33:02;11.52;;;4.95;;
39848;SDS011;25518;47.878;15.914;2022-12-18T08:35:34;16.08;;;7.22;;
39848;SDS011;25518;47.878;15.914;2022-12-18T08:38:06;14.67;;;5.73;;
39848;SDS011;25518;47.878;15.914;2022-12-18T08:40:37;11.13;;;4.50;;
39848;SDS011;25518;47.878;15.914;2022-12-18T08:43:09;8.23;;;3.47;;
39848;SDS011;25518;47.878;15.914;2022-12-18T08:46:00;8.50;;;3.67;;
39848;SDS011;25518;47.878;15.914;2022-12-18T08:48:31;7.10;;;3.55;;
39848;SDS011;25518;47.878;15.914;2022-12-18T08:51:02;7.05;;;2.90;;
39848;SDS011;25518;47.878;15.914;2022-12-18T08:53:33;6.53;;;3.20;;
39848;SDS011;25518;47.878;15.914;2022-12-18T08:56:05;6.55;;;2.95;;
39848;SDS011;25518;47.878;15.914;2022-12-18T08:58:36;6.10;;;3.00;;
39848;SDS011;25518;47.878;15.914;2022-12-18T09:01:08;5.55;;;2.88;;
39848;SDS011;25518;47.878;15.914;2022-12-18T09:03:42;7.75;;;3.60;;
39848;SDS011;25518;47.878;15.914;2022-12-18T09:06:13;7.22;;;3.25;;
39848;SDS011;25518;47.878;15.914;2022-12-18T09:08:45;6.40;;;3.42;;
39848;SDS011;25518;47.878;15.914;2022-12-18T09:11:20;8.50;;;3.78;;
39848;SDS011;25518;47.878;15.914;2022-12-18T09:13:53;8.00;;;3.55;;
39848;SDS011;25518;47.878;15.914;2022-12-18T09:16:25;5.60;;;2.80;;
39848;SDS011;25518;47.878;15.914;2022-12-18T09:18:58;6.22;;;3.05;;
39848;SDS011;25518;47.878;15.914;2022-12-18T09:21:31;8.10;;;3.45;;
39848;SDS011;25518;47.878;15.914;2022-12-18T09:24:03;8.03;;;4.03;;
39848;SDS011;25518;47.878;15.914;2022-12-18T09:26:35;8.15;;;3.58;;
39848;SDS011;25518;47.878;15.914;2022-12-18T09:29:07;7.47;;;3.85;;
39848;SDS011;25518;47.878;15.914;2022-12-18T09:31:38;9.88;;;3.92;;
39848;SDS011;25518;47.878;15.914;2022-12-18T09:34:09;7.88;;;3.60;;
39848;SDS011;25518;47.878;15.914;2022-12-18T09:36:40;7.43;;;3.83;;
39848;SDS011;25518;47.878;15.914;2022-12-18T09:39:11;8.10;;;3.70;;
39848;SDS011;25518;47.878;15.914;2022-12-18T09:41:44;7.47;;;3.47;;
39848;SDS011;25518;47.878;15.914;2022-12-18T09:44:22;7.47;;;3.75;;
39848;SDS011;25518;47.878;15.914;2022-12-18T09:47:14;10.17;;;4.27;;
39848;SDS011;25518;47.878;15.914;2022-12-18T09:49:51;10.35;;;4.78;;
39848;SDS011;25518;47.878;15.914;2022-12-18T09:52:29;7.82;;;4.03;;
39848;SDS011;25518;47.878;15.914;2022-12-18T09:55:05;9.03;;;4.37;;
39848;SDS011;25518;47.878;15.914;2022-12-18T09:57:46;10.35;;;4.80;;
39848;SDS011;25518;47.878;15.914;2022-12-18T10:00:22;9.82;;;4.60;;
39848;SDS011;25518;47.878;15.914;2022-12-18T10:02:59;8.68;;;4.32;;
39848;SDS011;25518;47.878;15.914;2022-12-18T10:08:17;9.23;;;4.27;;
39848;SDS011;25518;47.878;15.914;2022-12-18T10:16:34;11.88;;;5.68;;
39848;SDS011;25518;47.878;15.914;2022-12-18T10:25:26;11.88;;;5.72;;
39848;SDS011;25518;47.878;15.914;2022-12-18T10:27:56;13.75;;;6.07;;
39848;SDS011;25518;47.878;15.914;2022-12-18T10:30:30;11.63;;;5.65;;
39848;SDS011;25518;47.878;15.914;2022-12-18T10:33:02;12.60;;;6.00;;
39848;SDS011;25518;47.878;15.914;2022-12-18T10:35:33;10.18;;;5.57;;
39848;SDS011;25518;47.878;15.914;2022-12-18T10:40:50;12.52;;;6.43;;
39848;SDS011;25518;47.878;15.914;2022-12-18T10:48:53;11.52;;;6.20;;
39848;SDS011;25518;47.878;15.914;2022-12-18T10:51:27;13.88;;;6.82;;
39848;SDS011;25518;47.878;15.914;2022-12-18T10:56:34;14.80;;;6.75;;
39848;SDS011;25518;47.878;15.914;2022-12-18T10:59:08;11.88;;;6.43;;
39848;SDS011;25518;47.878;15.914;2022-12-18T11:01:57;13.40;;;7.07;;
39848;SDS011;25518;47.878;15.914;2022-12-18T11:04:29;13.10;;;6.90;;
39848;SDS011;25518;47.878;15.914;2022-12-18T11:07:04;13.57;;;6.83;;
39848;SDS011;25518;47.878;15.914;2022-12-18T11:09:38;16.10;;;7.65;;
39848;SDS011;25518;47.878;15.914;2022-12-18T11:14:51;18.67;;;8.75;;
39848;SDS011;25518;47.878;15.914;2022-12-18T11:17:29;26.00;;;11.80;;
39848;SDS011;25518;47.878;15.914;2022-12-18T11:22:38;21.90;;;10.23;;
39848;SDS011;25518;47.878;15.914;2022-12-18T11:27:41;24.17;;;11.50;;
39848;SDS011;25518;47.878;15.914;2022-12-18T11:30:26;18.55;;;10.10;;
39848;SDS011;25518;47.878;15.914;2022-12-18T11:33:27;17.48;;;9.20;;
39848;SDS011;25518;47.878;15.914;2022-12-18T11:35:59;15.05;;;7.85;;
39848;SDS011;25518;47.878;15.914;2022-12-18T11:38:34;19.00;;;9.35;;
39848;SDS011;25518;47.878;15.914;2022-12-18T11:46:27;19.88;;;9.80;;
39848;SDS011;25518;47.878;15.914;2022-12-18T11:49:07;18.58;;;9.52;;
39848;SDS011;25518;47.878;15.914;2022-12-18T11:51:50;16.70;;;8.97;;
39848;SDS011;25518;47.878;15.914;2022-12-18T11:54:43;20.60;;;10.60;;
39848;SDS011;25518;47.878;15.914;2022-12-18T12:00:12;17.65;;;9.40;;
39848;SDS011;25518;47.878;15.914;2022-12-18T12:14:39;20.95;;;10.98;;
39848;SDS011;25518;47.878;15.914;2022-12-18T12:17:34;22.63;;;11.85;;
39848;SDS011;25518;47.878;15.914;2022-12-18T12:37:33;19.88;;;10.18;;
39848;SDS011;25518;47.878;15.914;2022-12-18T12:40:30;24.38;;;11.82;;
39848;SDS011;25518;47.878;15.914;2022-12-18T12:43:10;25.00;;;11.43;;
39848;SDS011;25518;47.878;15.914;2022-12-18T12:45:59;23.48;;;12.07;;
39848;SDS011;25518;47.878;15.914;2022-12-18T12:49:09;22.60;;;11.27;;
39848;SDS011;25518;47.878;15.914;2022-12-18T12:51:30;19.42;;;10.68;;
39848;SDS011;25518;47.878;15.914;2022-12-18T12:54:08;20.17;;;10.33;;
39848;SDS011;25518;47.878;15.914;2022-12-18T12:57:08;17.70;;;8.90;;
39848;SDS011;25518;47.878;15.914;2022-12-18T13:04:52;21.20;;;11.30;;
39848;SDS011;25518;47.878;15.914;2022-12-18T13:07:29;19.60;;;10.43;;
39848;SDS011;25518;47.878;15.914;2022-12-18T13:10:26;18.35;;;10.90;;
39848;SDS011;25518;47.878;15.914;2022-12-18T13:13:04;17.35;;;10.10;;
39848;SDS011;25518;47.878;15.914;2022-12-18T13:18:19;17.25;;;9.70;;
39848;SDS011;25518;47.878;15.914;2022-12-18T13:31:58;18.35;;;9.45;;
39848;SDS011;25518;47.878;15.914;2022-12-18T13:34:19;21.92;;;10.85;;
39848;SDS011;25518;47.878;15.914;2022-12-18T13:36:50;17.00;;;9.35;;
39848;SDS011;25518;47.878;15.914;2022-12-18T13:39:24;18.25;;;9.80;;
39848;SDS011;25518;47.878;15.914;2022-12-18T13:44:35;21.60;;;11.60;;
39848;SDS011;25518;47.878;15.914;2022-12-18T13:50:03;22.10;;;11.40;;
39848;SDS011;25518;47.878;15.914;2022-12-18T13:52:50;22.67;;;11.20;;
39848;SDS011;25518;47.878;15.914;2022-12-18T13:55:22;19.33;;;10.73;;
39848;SDS011;25518;47.878;15.914;2022-12-18T13:58:03;19.38;;;10.48;;
39848;SDS011;25518;47.878;15.914;2022-12-18T14:00:35;21.83;;;11.68;;
39848;SDS011;25518;47.878;15.914;2022-12-18T14:03:20;20.30;;;10.75;;
39848;SDS011;25518;47.878;15.914;2022-12-18T14:05:56;21.37;;;11.20;;
39848;SDS011;25518;47.878;15.914;2022-12-18T14:08:34;20.50;;;10.20;;
39848;SDS011;25518;47.878;15.914;2022-12-18T14:11:17;18.73;;;9.75;;
39848;SDS011;25518;47.878;15.914;2022-12-18T14:13:52;21.97;;;11.57;;
39848;SDS011;25518;47.878;15.914;2022-12-18T14:16:23;20.27;;;11.27;;
39848;SDS011;25518;47.878;15.914;2022-12-18T14:18:55;19.63;;;10.68;;
39848;SDS011;25518;47.878;15.914;2022-12-18T14:21:28;20.38;;;10.80;;
39848;SDS011;25518;47.878;15.914;2022-12-18T14:26:39;20.48;;;10.05;;
39848;SDS011;25518;47.878;15.914;2022-12-18T14:29:27;20.92;;;10.32;;
39848;SDS011;25518;47.878;15.914;2022-12-18T14:32:16;23.35;;;11.30;;
39848;SDS011;25518;47.878;15.914;2022-12-18T14:34:50;18.83;;;10.68;;
39848;SDS011;25518;47.878;15.914;2022-12-18T14:37:24;23.10;;;11.43;;
39848;SDS011;25518;47.878;15.914;2022-12-18T14:39:58;19.33;;;9.65;;
39848;SDS011;25518;47.878;15.914;2022-12-18T14:42:30;18.65;;;9.95;;
39848;SDS011;25518;47.878;15.914;2022-12-18T14:45:31;18.08;;;9.80;;
39848;SDS011;25518;47.878;15.914;2022-12-18T14:50:54;19.20;;;10.23;;
39848;SDS011;25518;47.878;15.914;2022-12-18T14:53:31;20.08;;;10.52;;
39848;SDS011;25518;47.878;15.914;2022-12-18T14:56:22;17.50;;;9.70;;
39848;SDS011;25518;47.878;15.914;2022-12-18T15:01:28;23.20;;;10.30;;
39848;SDS011;25518;47.878;15.914;2022-12-18T15:04:01;23.27;;;10.80;;
39848;SDS011;25518;47.878;15.914;2022-12-18T15:06:35;20.10;;;10.57;;
39848;SDS011;25518;47.878;15.914;2022-12-18T15:09:25;19.67;;;10.13;;
39848;SDS011;25518;47.878;15.914;2022-12-18T15:11:57;18.77;;;10.13;;
39848;SDS011;25518;47.878;15.914;2022-12-18T15:17:02;19.98;;;10.60;;
39848;SDS011;25518;47.878;15.914;2022-12-18T15:19:37;21.20;;;10.45;;
39848;SDS011;25518;47.878;15.914;2022-12-18T15:22:15;20.13;;;10.40;;
39848;SDS011;25518;47.878;15.914;2022-12-18T15:24:49;22.35;;;11.07;;
39848;SDS011;25518;47.878;15.914;2022-12-18T15:27:23;17.30;;;9.98;;
39848;SDS011;25518;47.878;15.914;2022-12-18T15:30:11;20.43;;;10.53;;
39848;SDS011;25518;47.878;15.914;2022-12-18T15:32:45;19.17;;;10.57;;
39848;SDS011;25518;47.878;15.914;2022-12-18T15:35:19;18.08;;;10.77;;
39848;SDS011;25518;47.878;15.914;2022-12-18T15:37:52;19.42;;;9.82;;
39848;SDS011;25518;47.878;15.914;2022-12-18T15:40:23;20.03;;;9.90;;
39848;SDS011;25518;47.878;15.914;2022-12-18T15:42:54;20.10;;;10.77;;
39848;SDS011;25518;47.878;15.914;2022-12-18T15:45:46;18.73;;;10.45;;
39848;SDS011;25518;47.878;15.914;2022-12-18T15:48:21;20.85;;;9.95;;
39848;SDS011;25518;47.878;15.914;2022-12-18T15:50:53;22.30;;;10.27;;
39848;SDS011;25518;47.878;15.914;2022-12-18T15:53:28;18.42;;;9.65;;
39848;SDS011;25518;47.878;15.914;2022-12-18T15:56:04;18.63;;;9.80;;
39848;SDS011;25518;47.878;15.914;2022-12-18T15:58:59;18.85;;;10.30;;
39848;SDS011;25518;47.878;15.914;2022-12-18T16:01:31;18.23;;;10.20;;
39848;SDS011;25518;47.878;15.914;2022-12-18T16:04:02;21.13;;;10.67;;
39848;SDS011;25518;47.878;15.914;2022-12-18T16:06:33;23.77;;;12.88;;
39848;SDS011;25518;47.878;15.914;2022-12-18T16:09:04;101.47;;;28.88;;
39848;SDS011;25518;47.878;15.914;2022-12-18T16:11:36;45.50;;;15.82;;
39848;SDS011;25518;47.878;15.914;2022-12-18T16:14:19;55.05;;;18.42;;
39848;SDS011;25518;47.878;15.914;2022-12-18T16:16:53;44.75;;;20.80;;
39848;SDS011;25518;47.878;15.914;2022-12-18T16:19:27;30.80;;;15.50;;
39848;SDS011;25518;47.878;15.914;2022-12-18T16:21:59;34.25;;;17.02;;
39848;SDS011;25518;47.878;15.914;2022-12-18T16:24:33;27.50;;;12.93;;
39848;SDS011;25518;47.878;15.914;2022-12-18T16:27:06;28.20;;;13.50;;
39848;SDS011;25518;47.878;15.914;2022-12-18T16:29:37;26.25;;;12.65;;
39848;SDS011;25518;47.878;15.914;2022-12-18T16:32:11;18.80;;;9.80;;
39848;SDS011;25518;47.878;15.914;2022-12-18T16:34:50;18.67;;;10.20;;
39848;SDS011;25518;47.878;15.914;2022-12-18T16:37:21;30.40;;;16.13;;
39848;SDS011;25518;47.878;15.914;2022-12-18T16:39:52;31.43;;;16.87;;
39848;SDS011;25518;47.878;15.914;2022-12-18T16:42:23;28.55;;;14.75;;
39848;SDS011;25518;47.878;15.914;2022-12-18T16:44:54;21.60;;;11.55;;
39848;SDS011;25518;47.878;15.914;2022-12-18T16:47:25;18.77;;;10.23;;
39848;SDS011;25518;47.878;15.914;2022-12-18T16:49:56;19.33;;;10.23;;
39848;SDS011;25518;47.878;15.914;2022-12-18T16:52:27;16.33;;;8.95;;
39848;SDS011;25518;47.878;15.914;2022-12-18T16:54:59;20.85;;;9.68;;
39848;SDS011;25518;47.878;15.914;2022-12-18T16:57:30;18.23;;;9.38;;
39848;SDS011;25518;47.878;15.914;2022-12-18T17:00:01;19.35;;;9.48;;
39848;SDS011;25518;47.878;15.914;2022-12-18T17:02:33;19.20;;;9.95;;
39848;SDS011;25518;47.878;15.914;2022-12-18T17:05:04;18.00;;;9.50;;
39848;SDS011;25518;47.878;15.914;2022-12-18T17:07:38;23.00;;;11.10;;
39848;SDS011;25518;47.878;15.914;2022-12-18T17:10:08;19.05;;;10.57;;
39848;SDS011;25518;47.878;15.914;2022-12-18T17:12:39;18.73;;;10.25;;
39848;SDS011;25518;47.878;15.914;2022-12-18T17:15:11;17.02;;;9.75;;
39848;SDS011;25518;47.878;15.914;2022-12-18T17:17:43;17.77;;;9.90;;
39848;SDS011;25518;47.878;15.914;2022-12-18T17:20:14;16.90;;;9.60;;
39848;SDS011;25518;47.878;15.914;2022-12-18T17:22:45;18.17;;;10.25;;